Time;durP1;ratioP1;P1;durP2;ratioP2;P2;SDS_P1;SDS_P2;PMS_P1;PMS_P2;Temp;Humidity;BMP_temperature;BMP_pressure;BME280_temperature;BME280_humidity;BME280_pressure;Samples;Min_cycle;Max_cycle;Signal;HPM_P1;HPM_P2
2022/10/24 00:00:23;;;;;;;4.05;1.40;;;;;;;;;;4493463;28;20080;-61
2022/10/24 00:02:34;;;;;;;2.33;1.40;;;;;;;;;;4492789;28;20481;-61
2022/10/24 00:04:44;;;;;;;3.08;1.20;;;;;;;;;;4494865;28;20026;-62
2022/10/24 00:06:55;;;;;;;4.65;1.40;;;;;;;;;;4493285;28;20204;-62
2022/10/24 00:09:06;;;;;;;3.03;1.50;;;;;;;;;;4491757;28;20046;-62
2022/10/24 00:11:21;;;;;;;3.05;1.20;;;;;;;;;;4484346;28;20097;-63
2022/10/24 00:13:33;;;;;;;2.47;1.10;;;;;;;;;;4491287;28;20038;-62
2022/10/24 00:15:45;;;;;;;1.50;1.00;;;;;;;;;;4493271;28;20084;-62
2022/10/24 00:17:56;;;;;;;2.45;1.00;;;;;;;;;;4495681;28;20034;-62
2022/10/24 00:20:07;;;;;;;2.78;0.98;;;;;;;;;;4491639;28;40135;-62
2022/10/24 00:22:17;;;;;;;2.40;1.25;;;;;;;;;;4500628;28;20037;-62
2022/10/24 00:24:28;;;;;;;3.67;1.10;;;;;;;;;;4492757;28;20030;-62
2022/10/24 00:26:38;;;;;;;3.75;1.20;;;;;;;;;;4492093;28;20428;-62
2022/10/24 00:28:48;;;;;;;3.13;1.30;;;;;;;;;;4493718;28;20046;-62
2022/10/24 00:30:59;;;;;;;2.25;1.25;;;;;;;;;;4492000;28;27353;-62
2022/10/24 00:33:09;;;;;;;2.63;1.20;;;;;;;;;;4479557;28;20631;-62
2022/10/24 00:35:20;;;;;;;3.13;1.30;;;;;;;;;;4493251;28;20271;-62
2022/10/24 00:37:30;;;;;;;4.82;1.50;;;;;;;;;;4491869;28;20101;-62
2022/10/24 00:39:41;;;;;;;3.63;1.35;;;;;;;;;;4491455;28;37884;-61
2022/10/24 00:41:53;;;;;;;2.78;1.15;;;;;;;;;;4493258;28;20049;-62
2022/10/24 00:44:20;;;;;;;3.15;1.23;;;;;;;;;;4491534;28;20818;-62
2022/10/24 00:46:30;;;;;;;2.97;1.20;;;;;;;;;;4492671;28;20026;-61
2022/10/24 00:48:49;;;;;;;2.33;1.13;;;;;;;;;;4490689;28;20540;-62
2022/10/24 00:51:06;;;;;;;2.65;1.13;;;;;;;;;;4491969;28;20026;-62
2022/10/24 00:53:17;;;;;;;2.40;1.05;;;;;;;;;;4490239;28;20064;-62
2022/10/24 00:55:28;;;;;;;1.60;0.95;;;;;;;;;;4492912;28;20134;-62
2022/10/24 00:57:44;;;;;;;3.30;1.48;;;;;;;;;;4492274;28;20046;-62
2022/10/24 00:59:58;;;;;;;3.25;1.40;;;;;;;;;;4492176;28;20037;-62
2022/10/24 01:02:09;;;;;;;2.58;1.60;;;;;;;;;;4489983;28;20140;-62
2022/10/24 01:04:20;;;;;;;2.67;1.50;;;;;;;;;;4492505;28;20157;-63
2022/10/24 01:07:02;;;;;;;4.43;1.45;;;;;;;;;;4497229;28;20041;-63
2022/10/24 01:09:23;;;;;;;3.65;1.45;;;;;;;;;;4492729;28;20088;-62
2022/10/24 01:11:56;;;;;;;3.08;1.23;;;;;;;;;;4494711;28;20121;-62
2022/10/24 01:14:36;;;;;;;3.35;1.42;;;;;;;;;;4497143;28;20115;-62
2022/10/24 01:16:54;;;;;;;3.03;1.40;;;;;;;;;;4479012;28;20149;-62
2022/10/24 01:19:08;;;;;;;2.92;1.10;;;;;;;;;;4499661;28;20036;-63
2022/10/24 01:21:33;;;;;;;2.63;1.00;;;;;;;;;;4493293;28;20118;-63
2022/10/24 01:24:05;;;;;;;1.67;1.00;;;;;;;;;;4499281;28;20034;-62
2022/10/24 01:26:54;;;;;;;1.33;0.85;;;;;;;;;;4491991;28;20109;-63
2022/10/24 01:29:13;;;;;;;1.88;1.08;;;;;;;;;;4493500;28;20141;-63
2022/10/24 01:31:33;;;;;;;2.92;1.50;;;;;;;;;;4492006;28;20039;-63
2022/10/24 01:33:50;;;;;;;3.83;1.80;;;;;;;;;;4496509;28;20042;-62
2022/10/24 01:36:13;;;;;;;3.88;1.90;;;;;;;;;;4495243;28;20046;-62
2022/10/24 01:38:38;;;;;;;2.80;1.50;;;;;;;;;;4489703;28;20646;-63
2022/10/24 01:40:57;;;;;;;1.65;1.15;;;;;;;;;;4496121;28;20049;-64
2022/10/24 01:43:11;;;;;;;3.55;1.55;;;;;;;;;;4496735;28;20037;-62
2022/10/24 01:45:27;;;;;;;2.50;1.17;;;;;;;;;;4491744;28;20049;-62
2022/10/24 01:47:42;;;;;;;3.40;1.42;;;;;;;;;;4491213;28;20672;-61
2022/10/24 01:50:03;;;;;;;2.83;1.90;;;;;;;;;;4488601;28;20042;-62
2022/10/24 01:52:14;;;;;;;7.13;3.80;;;;;;;;;;4497694;28;20591;-62
2022/10/24 01:54:25;;;;;;;4.90;2.53;;;;;;;;;;4489813;28;38710;-61
2022/10/24 01:56:36;;;;;;;6.07;2.90;;;;;;;;;;4491607;28;20035;-62
2022/10/24 01:58:46;;;;;;;3.67;2.00;;;;;;;;;;4491350;28;20035;-62
2022/10/24 02:00:59;;;;;;;3.65;2.00;;;;;;;;;;4490550;28;22195;-62
2022/10/24 02:03:28;;;;;;;2.55;1.40;;;;;;;;;;4490688;28;20567;-62
2022/10/24 02:05:43;;;;;;;2.40;1.30;;;;;;;;;;4476162;28;20046;-62
2022/10/24 02:07:55;;;;;;;1.67;1.10;;;;;;;;;;4490100;28;20947;-62
2022/10/24 02:10:12;;;;;;;2.38;1.58;;;;;;;;;;4490721;28;20037;-62
2022/10/24 02:12:24;;;;;;;3.17;1.50;;;;;;;;;;4492790;28;20034;-62
2022/10/24 02:14:39;;;;;;;2.47;1.40;;;;;;;;;;4491863;28;20042;-62
2022/10/24 02:16:49;;;;;;;2.58;1.30;;;;;;;;;;4492797;28;20045;-62
2022/10/24 02:19:00;;;;;;;1.83;1.02;;;;;;;;;;4492451;28;20172;-62
2022/10/24 02:21:29;;;;;;;2.40;1.10;;;;;;;;;;4493353;28;20046;-62
2022/10/24 02:23:51;;;;;;;2.60;1.23;;;;;;;;;;4489623;28;20732;-62
2022/10/24 02:26:04;;;;;;;2.70;1.20;;;;;;;;;;4492583;28;20031;-62
2022/10/24 02:28:18;;;;;;;2.88;1.30;;;;;;;;;;4493833;28;20124;-61
2022/10/24 02:30:29;;;;;;;1.73;1.10;;;;;;;;;;4506426;28;20115;-62
2022/10/24 02:32:42;;;;;;;2.42;1.13;;;;;;;;;;4490181;28;38163;-62
2022/10/24 02:34:52;;;;;;;2.88;1.00;;;;;;;;;;4489417;28;21327;-62
2022/10/24 02:37:05;;;;;;;1.60;1.00;;;;;;;;;;4488997;28;43672;-61
2022/10/24 02:39:15;;;;;;;1.30;1.00;;;;;;;;;;4489062;28;20120;-61
2022/10/24 02:41:29;;;;;;;1.58;1.05;;;;;;;;;;4499962;28;20092;-61
2022/10/24 02:43:40;;;;;;;1.88;1.10;;;;;;;;;;4489963;28;20030;-62
2022/10/24 02:45:52;;;;;;;1.80;1.10;;;;;;;;;;4489028;28;23879;-62
2022/10/24 02:48:04;;;;;;;1.83;1.30;;;;;;;;;;4492164;28;20626;-62
2022/10/24 02:50:15;;;;;;;2.67;1.35;;;;;;;;;;4490121;28;20067;-61
2022/10/24 02:52:26;;;;;;;1.77;1.00;;;;;;;;;;4495944;28;20028;-62
2022/10/24 02:54:36;;;;;;;3.33;1.00;;;;;;;;;;4495709;28;20138;-62
2022/10/24 02:56:51;;;;;;;2.97;1.10;;;;;;;;;;4491554;28;27487;-63
2022/10/24 02:59:02;;;;;;;1.58;1.10;;;;;;;;;;4499274;28;20037;-62
2022/10/24 03:01:12;;;;;;;2.58;1.13;;;;;;;;;;4490102;28;38004;-62
2022/10/24 03:03:22;;;;;;;2.00;1.25;;;;;;;;;;4489935;28;30498;-62
2022/10/24 03:05:33;;;;;;;2.17;1.10;;;;;;;;;;4491345;28;20046;-62
2022/10/24 03:07:43;;;;;;;2.70;1.20;;;;;;;;;;4492182;28;20474;-62
2022/10/24 03:09:54;;;;;;;2.95;1.00;;;;;;;;;;4490480;28;37220;-62
2022/10/24 03:12:04;;;;;;;2.33;1.20;;;;;;;;;;4491446;28;20049;-61
2022/10/24 03:14:15;;;;;;;1.60;0.90;;;;;;;;;;4490401;28;20034;-62
2022/10/24 03:16:27;;;;;;;2.72;1.00;;;;;;;;;;4492377;28;20127;-62
2022/10/24 03:18:37;;;;;;;4.32;1.05;;;;;;;;;;4491779;28;20501;-62
2022/10/24 03:20:48;;;;;;;2.30;1.10;;;;;;;;;;4489577;28;20149;-61
2022/10/24 03:22:58;;;;;;;1.00;0.90;;;;;;;;;;4491716;28;20129;-62
2022/10/24 03:25:10;;;;;;;2.30;1.20;;;;;;;;;;4494176;28;20903;-62
2022/10/24 03:27:21;;;;;;;4.15;1.35;;;;;;;;;;4489933;28;20043;-62
2022/10/24 03:29:31;;;;;;;2.85;1.27;;;;;;;;;;4492148;28;20662;-62
2022/10/24 03:31:42;;;;;;;2.25;1.10;;;;;;;;;;4493098;28;20815;-62
2022/10/24 03:33:52;;;;;;;4.68;1.70;;;;;;;;;;4489865;28;20035;-62
2022/10/24 03:36:04;;;;;;;3.60;1.40;;;;;;;;;;4490024;28;30988;-62
2022/10/24 03:38:14;;;;;;;4.82;1.95;;;;;;;;;;4492782;28;20658;-62
2022/10/24 03:40:25;;;;;;;4.28;2.10;;;;;;;;;;4489204;28;38606;-62
2022/10/24 03:42:35;;;;;;;4.20;1.60;;;;;;;;;;4491208;28;20077;-62
2022/10/24 03:44:46;;;;;;;2.72;1.50;;;;;;;;;;4499744;28;20197;-62
2022/10/24 03:46:56;;;;;;;2.60;1.42;;;;;;;;;;4489471;28;20042;-62
2022/10/24 03:49:07;;;;;;;2.97;1.50;;;;;;;;;;4490692;28;20097;-61
2022/10/24 03:51:17;;;;;;;2.25;1.05;;;;;;;;;;4492798;28;20022;-62
2022/10/24 03:53:27;;;;;;;3.28;1.40;;;;;;;;;;4491460;28;20037;-62
2022/10/24 03:55:38;;;;;;;2.20;1.30;;;;;;;;;;4490402;28;20046;-62
2022/10/24 03:57:48;;;;;;;3.20;1.50;;;;;;;;;;4490519;28;21758;-62
2022/10/24 03:59:59;;;;;;;2.20;1.30;;;;;;;;;;4490028;28;41835;-63
2022/10/24 04:02:09;;;;;;;2.38;1.20;;;;;;;;;;4490187;28;20069;-62
2022/10/24 04:04:19;;;;;;;2.20;1.17;;;;;;;;;;4490983;28;20026;-62
2022/10/24 04:06:30;;;;;;;2.10;1.10;;;;;;;;;;4491130;28;20392;-62
2022/10/24 04:08:40;;;;;;;3.08;1.30;;;;;;;;;;4490437;28;20041;-62
2022/10/24 04:10:51;;;;;;;4.18;1.42;;;;;;;;;;4489829;28;42322;-62
2022/10/24 04:13:01;;;;;;;2.78;1.27;;;;;;;;;;4490602;28;44163;-62
2022/10/24 04:15:12;;;;;;;3.05;1.27;;;;;;;;;;4490931;28;20042;-62
2022/10/24 04:17:22;;;;;;;2.15;1.13;;;;;;;;;;4489854;28;34675;-62
2022/10/24 04:19:32;;;;;;;2.03;1.17;;;;;;;;;;4494764;28;20030;-62
2022/10/24 04:21:44;;;;;;;2.63;1.20;;;;;;;;;;4498436;28;20116;-62
2022/10/24 04:23:54;;;;;;;2.88;1.10;;;;;;;;;;4494193;28;20041;-62
2022/10/24 04:26:06;;;;;;;2.47;1.10;;;;;;;;;;4491534;28;20435;-62
2022/10/24 04:28:16;;;;;;;2.13;1.10;;;;;;;;;;4493757;28;21050;-62
2022/10/24 04:30:28;;;;;;;2.30;0.95;;;;;;;;;;4494407;28;25797;-62
2022/10/24 04:32:38;;;;;;;2.47;1.17;;;;;;;;;;4492848;28;20031;-61
2022/10/24 04:34:49;;;;;;;3.25;1.08;;;;;;;;;;4494933;28;20297;-62
2022/10/24 04:36:59;;;;;;;2.45;1.13;;;;;;;;;;4492820;28;26123;-61
2022/10/24 04:39:09;;;;;;;1.73;0.98;;;;;;;;;;4493042;28;20121;-62
2022/10/24 04:41:20;;;;;;;1.42;0.90;;;;;;;;;;4494317;28;20042;-61
2022/10/24 04:43:30;;;;;;;2.67;1.00;;;;;;;;;;4492267;28;33144;-62
2022/10/24 04:45:41;;;;;;;2.95;1.23;;;;;;;;;;4493584;28;20038;-62
2022/10/24 04:47:51;;;;;;;1.92;1.10;;;;;;;;;;4491378;28;41547;-61
2022/10/24 04:50:03;;;;;;;1.27;0.95;;;;;;;;;;4492168;28;20050;-62
2022/10/24 04:52:13;;;;;;;1.75;1.20;;;;;;;;;;4492826;28;20033;-62
2022/10/24 04:54:24;;;;;;;2.47;0.85;;;;;;;;;;4493843;28;20522;-62
2022/10/24 04:56:34;;;;;;;3.05;0.90;;;;;;;;;;4502149;28;20021;-62
2022/10/24 04:58:44;;;;;;;3.15;0.90;;;;;;;;;;4491762;28;36695;-62
2022/10/24 05:00:55;;;;;;;2.38;1.17;;;;;;;;;;4492987;28;26681;-62
2022/10/24 05:03:05;;;;;;;2.10;1.33;;;;;;;;;;4492174;28;20049;-62
2022/10/24 05:05:16;;;;;;;1.00;0.80;;;;;;;;;;4494062;28;20048;-62
2022/10/24 05:07:26;;;;;;;1.50;1.00;;;;;;;;;;4501166;28;20045;-62
2022/10/24 05:09:37;;;;;;;2.17;1.30;;;;;;;;;;4492609;28;44596;-62
2022/10/24 05:11:47;;;;;;;2.20;1.00;;;;;;;;;;4493078;28;27785;-62
2022/10/24 05:13:57;;;;;;;1.70;1.10;;;;;;;;;;4493832;28;20026;-62
2022/10/24 05:16:08;;;;;;;1.48;0.75;;;;;;;;;;4500249;28;40561;-62
2022/10/24 05:18:18;;;;;;;3.38;1.00;;;;;;;;;;4491332;28;20034;-62
2022/10/24 05:20:29;;;;;;;1.48;1.00;;;;;;;;;;4491679;28;20540;-62
2022/10/24 05:22:39;;;;;;;2.55;1.00;;;;;;;;;;4500532;28;20045;-61
2022/10/24 05:24:50;;;;;;;2.25;0.80;;;;;;;;;;4493022;28;20540;-61
2022/10/24 05:27:00;;;;;;;1.65;0.80;;;;;;;;;;4493651;28;20053;-61
2022/10/24 05:29:10;;;;;;;2.03;0.73;;;;;;;;;;4492973;28;20046;-62
2022/10/24 05:31:21;;;;;;;3.38;0.90;;;;;;;;;;4493802;28;20085;-62
2022/10/24 05:33:31;;;;;;;1.30;0.82;;;;;;;;;;4492642;28;41888;-62
2022/10/24 05:35:42;;;;;;;2.00;1.00;;;;;;;;;;4492454;28;32818;-63
2022/10/24 05:37:52;;;;;;;2.33;0.80;;;;;;;;;;4491969;28;42334;-61
2022/10/24 05:40:05;;;;;;;1.20;0.60;;;;;;;;;;4500370;28;20037;-62
2022/10/24 05:42:15;;;;;;;2.67;0.95;;;;;;;;;;4491885;28;20026;-61
2022/10/24 05:44:25;;;;;;;1.85;0.73;;;;;;;;;;4492867;28;20034;-61
2022/10/24 05:46:36;;;;;;;1.73;0.88;;;;;;;;;;4494700;28;20360;-62
2022/10/24 05:48:46;;;;;;;1.00;0.73;;;;;;;;;;4491724;28;41980;-61
2022/10/24 05:50:57;;;;;;;1.98;1.00;;;;;;;;;;4491905;28;39690;-62
2022/10/24 05:53:08;;;;;;;1.77;1.00;;;;;;;;;;4493451;28;20038;-61
2022/10/24 05:55:19;;;;;;;2.35;0.85;;;;;;;;;;4491372;28;20301;-62
2022/10/24 05:57:29;;;;;;;1.98;0.77;;;;;;;;;;4491287;28;20093;-62
2022/10/24 05:59:40;;;;;;;1.92;0.70;;;;;;;;;;4492811;28;20489;-61
2022/10/24 06:01:50;;;;;;;1.20;0.63;;;;;;;;;;4492813;28;30439;-61
2022/10/24 06:04:01;;;;;;;1.55;0.80;;;;;;;;;;4492218;28;20098;-62
2022/10/24 06:06:11;;;;;;;1.30;0.60;;;;;;;;;;4492972;28;20841;-62
2022/10/24 06:08:21;;;;;;;1.55;0.65;;;;;;;;;;4490603;28;31178;-65
2022/10/24 06:10:32;;;;;;;1.63;0.60;;;;;;;;;;4492506;28;20189;-62
2022/10/24 06:12:43;;;;;;;1.00;0.70;;;;;;;;;;4491655;28;21045;-62
2022/10/24 06:14:56;;;;;;;1.52;0.68;;;;;;;;;;4490950;28;20026;-62
2022/10/24 06:17:10;;;;;;;1.30;0.63;;;;;;;;;;4490265;28;20122;-62
2022/10/24 06:19:21;;;;;;;1.20;0.70;;;;;;;;;;4489204;28;20141;-62
2022/10/24 06:21:31;;;;;;;2.00;0.80;;;;;;;;;;4490754;28;20500;-63
2022/10/24 06:23:42;;;;;;;2.10;0.90;;;;;;;;;;4492488;28;20034;-62
2022/10/24 06:25:52;;;;;;;1.75;0.60;;;;;;;;;;4492306;28;20073;-62
2022/10/24 06:28:02;;;;;;;1.95;0.70;;;;;;;;;;4490156;28;27200;-62
2022/10/24 06:30:13;;;;;;;1.67;0.70;;;;;;;;;;4490734;28;20042;-62
2022/10/24 06:32:23;;;;;;;1.55;0.70;;;;;;;;;;4490964;28;28469;-62
2022/10/24 06:34:34;;;;;;;1.50;0.90;;;;;;;;;;4490910;28;28316;-62
2022/10/24 06:36:44;;;;;;;1.77;0.70;;;;;;;;;;4491500;28;20440;-62
2022/10/24 06:38:56;;;;;;;1.95;0.90;;;;;;;;;;4490666;28;38201;-62
2022/10/24 06:41:08;;;;;;;1.33;0.80;;;;;;;;;;4490608;28;20823;-62
2022/10/24 06:43:19;;;;;;;1.35;0.60;;;;;;;;;;4491988;28;20637;-62
2022/10/24 06:45:29;;;;;;;1.55;0.80;;;;;;;;;;4491347;28;20116;-62
2022/10/24 06:47:40;;;;;;;1.45;0.70;;;;;;;;;;4491485;28;21678;-64
2022/10/24 06:49:50;;;;;;;1.65;0.73;;;;;;;;;;4493883;28;20046;-62
2022/10/24 06:52:01;;;;;;;2.05;0.63;;;;;;;;;;4491515;28;20038;-62
2022/10/24 06:54:11;;;;;;;2.00;0.80;;;;;;;;;;4492956;28;20034;-62
2022/10/24 06:56:22;;;;;;;0.75;0.50;;;;;;;;;;4491242;28;20639;-62
2022/10/24 06:58:34;;;;;;;1.50;0.60;;;;;;;;;;4490636;28;20048;-62
2022/10/24 07:00:45;;;;;;;1.15;0.60;;;;;;;;;;4505114;28;20033;-62
2022/10/24 07:02:55;;;;;;;1.70;0.70;;;;;;;;;;4489922;28;36695;-62
2022/10/24 07:05:09;;;;;;;0.82;0.65;;;;;;;;;;4488787;28;40459;-62
2022/10/24 07:07:20;;;;;;;1.85;0.70;;;;;;;;;;4490953;28;21328;-63
2022/10/24 07:09:30;;;;;;;1.27;0.70;;;;;;;;;;4491362;28;20690;-63
2022/10/24 07:11:42;;;;;;;0.98;0.60;;;;;;;;;;4489680;28;37482;-62
2022/10/24 07:13:52;;;;;;;0.70;0.60;;;;;;;;;;4491433;28;20042;-62
2022/10/24 07:16:03;;;;;;;1.10;0.50;;;;;;;;;;4490782;28;20026;-62
2022/10/24 07:18:15;;;;;;;1.10;0.52;;;;;;;;;;4490967;28;20042;-63
2022/10/24 07:20:25;;;;;;;1.23;1.00;;;;;;;;;;4490693;28;20515;-62
2022/10/24 07:22:36;;;;;;;1.70;0.70;;;;;;;;;;4491857;28;20070;-62
2022/10/24 07:24:53;;;;;;;1.13;0.60;;;;;;;;;;4491624;28;20117;-62
2022/10/24 07:27:04;;;;;;;1.02;0.57;;;;;;;;;;4492583;28;20035;-62
2022/10/24 07:29:14;;;;;;;0.90;0.60;;;;;;;;;;4490681;28;26651;-63
2022/10/24 07:31:26;;;;;;;1.42;0.50;;;;;;;;;;4490514;28;43478;-63
2022/10/24 07:33:38;;;;;;;1.25;0.68;;;;;;;;;;4490768;28;20049;-62
2022/10/24 07:35:48;;;;;;;0.85;0.60;;;;;;;;;;4491827;28;20056;-63
2022/10/24 07:37:59;;;;;;;0.65;0.57;;;;;;;;;;4499533;28;20084;-62
2022/10/24 07:40:10;;;;;;;1.13;0.55;;;;;;;;;;4491389;28;20034;-62
2022/10/24 07:42:20;;;;;;;0.82;0.60;;;;;;;;;;4490613;28;20480;-62
2022/10/24 07:44:30;;;;;;;0.98;0.60;;;;;;;;;;4489749;28;20117;-63
2022/10/24 07:46:41;;;;;;;1.33;0.70;;;;;;;;;;4491542;28;20046;-62
2022/10/24 07:48:52;;;;;;;1.95;0.60;;;;;;;;;;4488615;28;20737;-62
2022/10/24 07:51:08;;;;;;;1.42;0.60;;;;;;;;;;4489208;28;20121;-62
2022/10/24 07:53:18;;;;;;;1.98;0.60;;;;;;;;;;4491069;28;20034;-62
2022/10/24 07:55:29;;;;;;;1.50;0.70;;;;;;;;;;4495065;28;20030;-62
2022/10/24 07:57:39;;;;;;;0.88;0.50;;;;;;;;;;4492471;28;20034;-62
2022/10/24 07:59:50;;;;;;;1.33;0.50;;;;;;;;;;4498165;28;20093;-61
2022/10/24 08:02:00;;;;;;;0.90;0.52;;;;;;;;;;4493117;28;20141;-62
2022/10/24 08:04:12;;;;;;;1.33;0.60;;;;;;;;;;4494105;28;20061;-62
2022/10/24 08:06:27;;;;;;;1.52;0.50;;;;;;;;;;4494239;28;20021;-62
2022/10/24 08:08:37;;;;;;;0.70;0.50;;;;;;;;;;4492708;28;20070;-62
2022/10/24 08:10:48;;;;;;;1.23;0.55;;;;;;;;;;4492373;28;20125;-62
2022/10/24 08:12:58;;;;;;;1.35;0.60;;;;;;;;;;4494411;28;20181;-61
2022/10/24 08:15:09;;;;;;;1.73;0.60;;;;;;;;;;4492678;28;20591;-62
2022/10/24 08:17:22;;;;;;;2.03;0.60;;;;;;;;;;4496323;28;20131;-62
2022/10/24 08:19:33;;;;;;;1.50;1.10;;;;;;;;;;4493616;28;20037;-62
2022/10/24 08:21:43;;;;;;;1.05;0.50;;;;;;;;;;4493695;28;20756;-62
2022/10/24 08:23:54;;;;;;;0.77;0.60;;;;;;;;;;4492288;28;20038;-63
2022/10/24 08:26:10;;;;;;;0.85;0.50;;;;;;;;;;4493103;28;20046;-62
2022/10/24 08:28:22;;;;;;;1.65;0.70;;;;;;;;;;4497121;28;20046;-62
2022/10/24 08:30:32;;;;;;;1.83;0.70;;;;;;;;;;4491849;28;20095;-62
2022/10/24 08:32:43;;;;;;;1.10;0.63;;;;;;;;;;4492017;28;20128;-62
2022/10/24 08:34:53;;;;;;;1.05;0.52;;;;;;;;;;4493386;28;20396;-62
2022/10/24 08:37:03;;;;;;;1.15;0.50;;;;;;;;;;4492843;28;20038;-63
2022/10/24 08:39:15;;;;;;;1.08;0.50;;;;;;;;;;4496372;28;20038;-62
2022/10/24 08:41:36;;;;;;;3.28;0.75;;;;;;;;;;4489999;28;20021;-62
2022/10/24 08:43:46;;;;;;;1.17;0.73;;;;;;;;;;4496212;28;20069;-62
2022/10/24 08:46:03;;;;;;;0.77;0.57;;;;;;;;;;4491683;28;20113;-61
2022/10/24 08:48:19;;;;;;;2.15;0.63;;;;;;;;;;4491804;28;20033;-62
2022/10/24 08:50:32;;;;;;;1.25;0.60;;;;;;;;;;4491813;28;20042;-62
2022/10/24 08:52:45;;;;;;;1.45;0.50;;;;;;;;;;4492759;28;20091;-61
2022/10/24 08:54:58;;;;;;;2.13;0.70;;;;;;;;;;4494139;28;20041;-62
2022/10/24 08:57:19;;;;;;;2.25;0.82;;;;;;;;;;4495501;28;20121;-62
2022/10/24 08:59:32;;;;;;;0.95;0.45;;;;;;;;;;4494184;28;20859;-62
2022/10/24 09:01:51;;;;;;;1.30;0.60;;;;;;;;;;4496129;28;20069;-63
2022/10/24 09:04:04;;;;;;;0.75;0.50;;;;;;;;;;4492883;28;20472;-62
2022/10/24 09:06:20;;;;;;;1.55;0.77;;;;;;;;;;4484329;28;20081;-62
2022/10/24 09:08:52;;;;;;;1.90;0.73;;;;;;;;;;4496476;28;20096;-62
2022/10/24 09:11:04;;;;;;;1.15;0.55;;;;;;;;;;4500743;28;20084;-62
2022/10/24 09:13:15;;;;;;;1.20;0.50;;;;;;;;;;4477490;28;20073;-62
2022/10/24 09:15:29;;;;;;;1.95;0.90;;;;;;;;;;4491629;28;20149;-62
2022/10/24 09:17:41;;;;;;;2.22;1.13;;;;;;;;;;4492786;28;21028;-61
2022/10/24 09:20:14;;;;;;;1.65;0.70;;;;;;;;;;4491864;28;20097;-62
2022/10/24 09:22:27;;;;;;;0.73;0.43;;;;;;;;;;4492338;28;20093;-62
2022/10/24 09:24:52;;;;;;;1.35;0.50;;;;;;;;;;4496519;28;20105;-62
2022/10/24 09:27:06;;;;;;;1.33;0.60;;;;;;;;;;4491722;28;20073;-62
2022/10/24 09:29:16;;;;;;;2.30;0.60;;;;;;;;;;4491764;28;20137;-62
2022/10/24 09:31:27;;;;;;;1.63;0.60;;;;;;;;;;4491449;28;30103;-62
2022/10/24 09:33:39;;;;;;;1.35;0.43;;;;;;;;;;4491341;28;20042;-62
2022/10/24 09:35:51;;;;;;;1.15;0.50;;;;;;;;;;4492537;28;20057;-62
2022/10/24 09:38:24;;;;;;;1.15;0.70;;;;;;;;;;4500145;28;20029;-62
2022/10/24 09:40:36;;;;;;;1.60;0.60;;;;;;;;;;4490914;28;20494;-62
2022/10/24 09:43:01;;;;;;;0.80;0.45;;;;;;;;;;4492320;28;20037;-61
2022/10/24 09:45:27;;;;;;;1.52;0.70;;;;;;;;;;4492315;28;20717;-63
2022/10/24 09:47:40;;;;;;;1.63;0.70;;;;;;;;;;4494139;28;20535;-63
2022/10/24 09:49:51;;;;;;;2.30;0.50;;;;;;;;;;4494085;28;20045;-61
2022/10/24 09:52:06;;;;;;;1.77;0.50;;;;;;;;;;4501754;28;20034;-65
2022/10/24 09:54:19;;;;;;;1.25;0.47;;;;;;;;;;4490416;28;20181;-62
2022/10/24 09:56:39;;;;;;;2.30;0.50;;;;;;;;;;4492754;28;20067;-62
2022/10/24 09:58:49;;;;;;;0.75;0.40;;;;;;;;;;4490664;28;20041;-62
2022/10/24 10:01:15;;;;;;;1.27;0.30;;;;;;;;;;4490612;28;20041;-62
2022/10/24 10:03:26;;;;;;;2.25;0.52;;;;;;;;;;4493926;28;20077;-62
2022/10/24 10:05:43;;;;;;;1.17;0.47;;;;;;;;;;4491142;28;20572;-62
2022/10/24 10:07:54;;;;;;;1.33;0.65;;;;;;;;;;4490727;28;20532;-63
2022/10/24 10:10:23;;;;;;;0.65;0.50;;;;;;;;;;4477242;28;20055;-61
2022/10/24 10:12:39;;;;;;;1.73;0.47;;;;;;;;;;4489519;28;20164;-61
2022/10/24 10:14:49;;;;;;;1.23;0.40;;;;;;;;;;4492382;28;20500;-62
2022/10/24 10:17:02;;;;;;;0.73;0.40;;;;;;;;;;4489229;28;20041;-61
2022/10/24 10:19:18;;;;;;;1.65;0.70;;;;;;;;;;4491038;28;20034;-62
2022/10/24 10:21:59;;;;;;;0.57;0.43;;;;;;;;;;4491967;28;20084;-62
2022/10/24 10:24:41;;;;;;;1.02;0.50;;;;;;;;;;4491446;28;20044;-62
2022/10/24 10:26:51;;;;;;;0.95;0.40;;;;;;;;;;4499509;28;20591;-62
2022/10/24 10:29:05;;;;;;;1.80;0.50;;;;;;;;;;4491904;28;20278;-62
2022/10/24 10:31:18;;;;;;;0.85;0.40;;;;;;;;;;4491111;28;20042;-62
2022/10/24 10:33:41;;;;;;;1.65;0.68;;;;;;;;;;4496526;28;20115;-62
2022/10/24 10:36:09;;;;;;;1.05;0.40;;;;;;;;;;4490879;28;20041;-61
2022/10/24 10:38:31;;;;;;;;;;;;;;;;;;4494476;28;20038;-61
2022/10/24 10:40:46;;;;;;;1.58;0.50;;;;;;;;;;4490682;28;19917;-62
2022/10/24 10:43:25;;;;;;;0.95;0.30;;;;;;;;;;4490474;28;20567;-64
2022/10/24 10:46:13;;;;;;;1.27;0.50;;;;;;;;;;4493514;28;20034;-63
2022/10/24 10:48:34;;;;;;;1.00;0.50;;;;;;;;;;4490196;28;20038;-64
2022/10/24 10:50:57;;;;;;;0.60;0.32;;;;;;;;;;4490378;28;20101;-62
2022/10/24 10:53:24;;;;;;;0.82;0.40;;;;;;;;;;4489409;28;20023;-63
2022/10/24 10:55:46;;;;;;;1.25;0.40;;;;;;;;;;4495436;28;20164;-61
2022/10/24 10:58:12;;;;;;;0.60;0.43;;;;;;;;;;4490316;28;20038;-62
2022/10/24 11:01:00;;;;;;;0.73;0.40;;;;;;;;;;4492106;28;20038;-62
2022/10/24 11:03:36;;;;;;;1.15;0.50;;;;;;;;;;4455393;28;20058;-62
2022/10/24 11:05:56;;;;;;;0.93;0.40;;;;;;;;;;4484567;28;20033;-62
2022/10/24 11:08:38;;;;;;;1.40;0.40;;;;;;;;;;4505323;28;20141;-62
2022/10/24 11:10:53;;;;;;;1.02;0.38;;;;;;;;;;4490928;28;20048;-63
2022/10/24 11:13:06;;;;;;;0.90;0.40;;;;;;;;;;4490193;28;20583;-62
2022/10/24 11:15:21;;;;;;;1.35;0.50;;;;;;;;;;4499640;28;20092;-61
2022/10/24 11:17:40;;;;;;;0.80;0.40;;;;;;;;;;4490313;28;20151;-62
2022/10/24 11:20:15;;;;;;;0.95;0.40;;;;;;;;;;4491127;28;20427;-63
2022/10/24 11:22:30;;;;;;;1.52;0.60;;;;;;;;;;4489788;28;20042;-62
2022/10/24 11:24:44;;;;;;;0.90;0.50;;;;;;;;;;4498851;28;20844;-61
2022/10/24 11:27:13;;;;;;;0.70;0.32;;;;;;;;;;4490027;28;20068;-62
2022/10/24 11:29:40;;;;;;;0.93;0.50;;;;;;;;;;4503519;28;20042;-62
2022/10/24 11:31:54;;;;;;;1.10;0.30;;;;;;;;;;4501184;28;20038;-62
2022/10/24 11:34:15;;;;;;;1.80;0.47;;;;;;;;;;4495743;28;20144;-62
2022/10/24 11:36:59;;;;;;;1.17;0.40;;;;;;;;;;4493046;28;20034;-61
2022/10/24 11:39:29;;;;;;;1.25;0.45;;;;;;;;;;4476683;28;20042;-62
2022/10/24 11:41:54;;;;;;;0.65;0.30;;;;;;;;;;4496653;28;20029;-62
2022/10/24 11:44:16;;;;;;;0.47;0.40;;;;;;;;;;4495218;28;20563;-62
2022/10/24 11:46:36;;;;;;;0.85;0.50;;;;;;;;;;4501463;28;20037;-62
2022/10/24 11:48:54;;;;;;;0.80;0.35;;;;;;;;;;4493228;28;20074;-61
2022/10/24 11:51:33;;;;;;;1.80;0.40;;;;;;;;;;4493902;28;20834;-62
2022/10/24 11:53:54;;;;;;;0.88;0.40;;;;;;;;;;4497080;28;20045;-61
2022/10/24 11:56:16;;;;;;;0.43;0.40;;;;;;;;;;4496563;28;20069;-62
2022/10/24 11:58:27;;;;;;;1.20;0.52;;;;;;;;;;4493043;28;20737;-62
2022/10/24 12:01:17;;;;;;;2.30;0.43;;;;;;;;;;4492186;28;20161;-62
2022/10/24 12:03:55;;;;;;;1.05;0.50;;;;;;;;;;4490781;28;20047;-62
2022/10/24 12:06:19;;;;;;;0.82;0.50;;;;;;;;;;4496305;28;20575;-62
2022/10/24 12:08:54;;;;;;;0.68;0.40;;;;;;;;;;4493194;28;20655;-62
2022/10/24 12:11:11;;;;;;;1.10;0.60;;;;;;;;;;4491167;28;20141;-63
2022/10/24 12:13:40;;;;;;;;;;;;;;;;;;4494121;28;20081;-62
2022/10/24 12:16:12;;;;;;;0.98;0.50;;;;;;;;;;4492151;28;20060;-62
2022/10/24 12:18:32;;;;;;;1.13;0.55;;;;;;;;;;4491229;28;20030;-62
2022/10/24 12:20:42;;;;;;;0.80;0.45;;;;;;;;;;4493743;28;20625;-62
2022/10/24 12:22:54;;;;;;;1.33;0.45;;;;;;;;;;4491653;28;20506;-63
2022/10/24 12:25:07;;;;;;;1.20;0.50;;;;;;;;;;4493199;28;20212;-62
2022/10/24 12:27:31;;;;;;;2.25;0.50;;;;;;;;;;4492401;28;20038;-63
2022/10/24 12:29:42;;;;;;;0.60;0.30;;;;;;;;;;4491918;28;20570;-62
2022/10/24 12:31:53;;;;;;;0.77;0.40;;;;;;;;;;4493265;28;20389;-62
2022/10/24 12:34:15;;;;;;;0.70;0.43;;;;;;;;;;4493963;28;20181;-61
2022/10/24 12:37:03;;;;;;;0.73;0.50;;;;;;;;;;4493492;28;20038;-62
2022/10/24 12:39:34;;;;;;;0.77;0.40;;;;;;;;;;4493415;28;20500;-62
2022/10/24 12:41:45;;;;;;;0.88;0.60;;;;;;;;;;4482389;28;20042;-62
2022/10/24 12:44:32;;;;;;;3.22;0.50;;;;;;;;;;4492816;28;29595;-62
2022/10/24 12:46:43;;;;;;;0.77;0.50;;;;;;;;;;4491655;28;20034;-62
2022/10/24 12:48:56;;;;;;;0.70;0.50;;;;;;;;;;4493481;28;20034;-62
2022/10/24 12:51:32;;;;;;;1.38;0.40;;;;;;;;;;4492413;28;20038;-62
2022/10/24 12:54:11;;;;;;;0.82;0.40;;;;;;;;;;4489907;28;20873;-62
2022/10/24 12:56:21;;;;;;;1.00;0.50;;;;;;;;;;4493038;28;20130;-61
2022/10/24 12:58:37;;;;;;;1.88;0.50;;;;;;;;;;4492367;28;20029;-62
2022/10/24 13:01:01;;;;;;;0.95;0.50;;;;;;;;;;4493338;28;20041;-62
2022/10/24 13:03:20;;;;;;;0.90;0.45;;;;;;;;;;4491089;28;20045;-61
2022/10/24 13:05:50;;;;;;;1.27;0.43;;;;;;;;;;4508904;28;20038;-62
2022/10/24 13:08:16;;;;;;;0.70;0.50;;;;;;;;;;4491215;28;20151;-62
2022/10/24 13:10:48;;;;;;;0.40;0.40;;;;;;;;;;4493101;28;20070;-62
2022/10/24 13:13:05;;;;;;;0.95;0.50;;;;;;;;;;4500178;28;20085;-62
2022/10/24 13:15:27;;;;;;;1.65;0.50;;;;;;;;;;4491873;28;20035;-62
2022/10/24 13:18:13;;;;;;;0.77;0.50;;;;;;;;;;4493696;28;20041;-62
2022/10/24 13:20:25;;;;;;;0.65;0.40;;;;;;;;;;4485018;28;20057;-62
2022/10/24 13:22:36;;;;;;;1.08;0.30;;;;;;;;;;4490840;28;20592;-62
2022/10/24 13:24:46;;;;;;;1.38;0.40;;;;;;;;;;4493270;28;20038;-62
2022/10/24 13:27:17;;;;;;;1.00;0.30;;;;;;;;;;4492490;28;20416;-62
2022/10/24 13:29:27;;;;;;;1.95;0.60;;;;;;;;;;4484212;28;20634;-62
2022/10/24 13:31:40;;;;;;;0.85;0.30;;;;;;;;;;4492873;28;20030;-61